Hobbsville, North Carolina
Current Conditions -  °F | °C
As of 6:55 AM on Sunday 21 Dec 2014 (Local Time) from KEDE Reporting Station
NA  
Wind Chill: 31°   Ceiling: NA
Heat Index: 31°   Visibility: 7mi
Dew Point: 29°   Wind: 3mph
Humidity: 94%   Direction: 20°NNE
Pressure: 30.31"   Gusts: NA
Location:  36.35°N, 76.6°W
Report Text: KEDE 211155Z AUTO 02003KT 7SM M01/M02 A3031 RMK AO2 T10071016 10000 21011
Loading
Personal Weather Stations






























Interactive Weather Map New forecast layout! Learn more

10-Day Weather Forecast

Advertisements
Track Severe Weather on mobile